Time;durP1;ratioP1;P1;durP2;ratioP2;P2;SDS_P1;SDS_P2;PMS_P1;PMS_P2;Temp;Humidity;BMP_temperature;BMP_pressure;BME280_temperature;BME280_humidity;BME280_pressure;Samples;Min_cycle;Max_cycle;Signal;HPM_P1;HPM_P2
2022/09/04 00:01:48;;;;;;;2.70;2.37;;;17.40;94.30;;;;;;4964954;28;20433;-86
2022/09/04 00:04:37;;;;;;;6.13;2.50;;;17.40;94.30;;;;;;4978871;28;20441;-86
2022/09/04 00:07:14;;;;;;;1.80;1.67;;;17.30;94.40;;;;;;4985120;28;20422;-87
2022/09/04 00:10:10;;;;;;;2.50;2.03;;;17.30;94.60;;;;;;4981946;28;20463;-87
2022/09/04 00:12:49;;;;;;;3.80;2.53;;;17.30;94.60;;;;;;4989522;28;20525;-88
2022/09/04 00:15:27;;;;;;;2.60;2.00;;;17.30;94.70;;;;;;4989828;28;20520;-87
2022/09/04 00:18:07;;;;;;;1.80;1.60;;;17.30;94.70;;;;;;4986813;28;20425;-86
2022/09/04 00:20:41;;;;;;;2.50;1.90;;;17.30;94.80;;;;;;4989717;28;20515;-86
2022/09/04 00:23:43;;;;;;;5.37;2.57;;;17.20;94.90;;;;;;4991086;28;20734;-86
2022/09/04 00:26:39;;;;;;;3.97;2.83;;;17.20;95.00;;;;;;4978369;28;20991;-86
2022/09/04 00:29:21;;;;;;;3.43;2.23;;;17.20;95.00;;;;;;4989911;28;20452;-85
2022/09/04 00:31:55;;;;;;;2.30;2.17;;;17.20;95.10;;;;;;4992557;28;20429;-87
2022/09/04 00:35:01;;;;;;;3.17;2.50;;;17.20;95.10;;;;;;4983017;28;20462;-84
2022/09/04 00:37:51;;;;;;;1.27;1.23;;;17.30;95.20;;;;;;4991985;28;20424;-86
2022/09/04 00:40:40;;;;;;;1.67;1.30;;;17.30;95.10;;;;;;5007076;28;20810;-85
2022/09/04 00:43:28;;;;;;;1.40;1.40;;;17.30;95.10;;;;;;4993922;28;20419;-87
2022/09/04 00:46:21;;;;;;;2.23;2.03;;;17.30;95.20;;;;;;4992056;28;21029;-86
2022/09/04 00:49:19;;;;;;;2.27;2.00;;;17.20;95.30;;;;;;4992112;28;20811;-85
2022/09/04 00:52:40;;;;;;;2.00;1.87;;;17.20;95.30;;;;;;5011546;28;20451;-87
2022/09/04 00:55:29;;;;;;;2.50;2.07;;;17.20;95.30;;;;;;4968536;28;20448;-88
2022/09/04 00:58:26;;;;;;;2.33;1.93;;;17.20;95.30;;;;;;4995102;28;20964;-86
2022/09/04 01:00:55;;;;;;;2.70;2.17;;;17.10;95.40;;;;;;4994982;28;20428;-89
2022/09/04 01:03:55;;;;;;;2.53;2.40;;;17.10;95.50;;;;;;4994881;28;20424;-86
2022/09/04 01:06:49;;;;;;;1.90;1.80;;;17.10;95.60;;;;;;5012517;28;20431;-87
2022/09/04 01:09:17;;;;;;;2.63;1.80;;;17.10;95.60;;;;;;5012025;28;20464;-86
2022/09/04 01:12:07;;;;;;;2.03;1.93;;;17.00;95.70;;;;;;4995215;28;20543;-87
2022/09/04 01:14:54;;;;;;;3.27;1.70;;;17.00;95.60;;;;;;4995027;28;20446;-85
2022/09/04 01:17:21;;;;;;;1.93;1.73;;;17.00;95.70;;;;;;4990056;28;20421;-86
2022/09/04 01:20:15;;;;;;;1.60;1.50;;;17.00;95.90;;;;;;5002709;28;20417;-88
2022/09/04 01:23:06;;;;;;;2.23;2.03;;;17.00;96.00;;;;;;4970153;28;20425;-86
2022/09/04 01:26:05;;;;;;;1.93;1.63;;;17.00;96.00;;;;;;4988090;28;20432;-86
2022/09/04 01:28:57;;;;;;;2.50;2.33;;;17.00;96.10;;;;;;4994500;28;20519;-86
2022/09/04 01:31:41;;;;;;;7.73;1.77;;;17.00;96.10;;;;;;5010660;28;20547;-88
2022/09/04 01:34:26;;;;;;;3.37;2.50;;;17.00;96.20;;;;;;4977611;28;997160;-86
2022/09/04 01:36:59;;;;;;;8.47;3.07;;;17.00;96.30;;;;;;4991182;28;20174;-86
2022/09/04 01:39:29;;;;;;;2.90;2.43;;;17.00;96.40;;;;;;4986556;28;20827;-86
2022/09/04 01:42:16;;;;;;;1.93;1.83;;;17.00;96.50;;;;;;4998904;28;20427;-88
2022/09/04 01:44:42;;;;;;;2.40;2.03;;;17.00;96.70;;;;;;4997137;28;20538;-86
2022/09/04 01:47:29;;;;;;;3.23;2.90;;;17.00;96.50;;;;;;5002500;28;20574;-86
2022/09/04 01:50:10;;;;;;;2.13;1.63;;;17.00;96.40;;;;;;5007392;28;20194;-86
2022/09/04 01:52:47;;;;;;;1.33;1.33;;;17.00;96.50;;;;;;5003062;28;20416;-86
2022/09/04 01:55:33;;;;;;;5.53;2.53;;;17.00;96.60;;;;;;4999963;28;20440;-86
2022/09/04 01:58:17;;;;;;;2.80;2.17;;;17.00;96.80;;;;;;4998051;28;20424;-85
2022/09/04 02:00:53;;;;;;;2.27;1.93;;;17.00;96.80;;;;;;5011673;28;20808;-86
2022/09/04 02:03:38;;;;;;;2.43;2.23;;;17.00;96.80;;;;;;5011025;28;20485;-87
2022/09/04 02:06:21;;;;;;;5.90;2.60;;;17.00;96.80;;;;;;4997870;28;20468;-85
2022/09/04 02:09:14;;;;;;;4.23;2.23;;;17.00;97.10;;;;;;4984210;28;20721;-85
2022/09/04 02:11:50;;;;;;;4.13;2.53;;;17.00;97.10;;;;;;4991866;28;20920;-86
2022/09/04 02:14:22;;;;;;;2.93;2.10;;;17.00;97.00;;;;;;4995597;28;20428;-87
2022/09/04 02:17:24;;;;;;;2.53;2.00;;;17.00;97.00;;;;;;5002437;28;20417;-86
2022/09/04 02:20:00;;;;;;;3.40;2.40;;;17.00;97.30;;;;;;4982564;28;20468;-86
2022/09/04 02:22:57;;;;;;;5.60;2.20;;;17.00;97.20;;;;;;4994114;28;20419;-86
2022/09/04 02:25:40;;;;;;;2.23;2.03;;;16.90;97.10;;;;;;4994837;28;20452;-87
2022/09/04 02:28:43;;;;;;;2.63;2.43;;;16.90;97.00;;;;;;5004026;28;20424;-85
2022/09/04 02:31:21;;;;;;;1.53;1.40;;;16.90;97.20;;;;;;4982635;28;20719;-86
2022/09/04 02:34:07;;;;;;;2.47;2.10;;;16.90;97.10;;;;;;5003381;28;20448;-86
2022/09/04 02:36:38;;;;;;;5.90;2.60;;;16.90;97.20;;;;;;4989852;28;20417;-86
2022/09/04 02:39:39;;;;;;;4.53;2.07;;;16.90;97.20;;;;;;5010597;28;20440;-84
2022/09/04 02:42:16;;;;;;;3.37;1.80;;;16.80;97.20;;;;;;4969024;28;20423;-85
2022/09/04 02:45:06;;;;;;;4.60;2.93;;;16.80;97.20;;;;;;5007851;28;20530;-86
2022/09/04 02:47:45;;;;;;;2.90;2.73;;;16.80;97.20;;;;;;5003471;28;20416;-87
2022/09/04 02:50:38;;;;;;;2.27;2.10;;;16.80;97.30;;;;;;5011607;28;20531;-87
2022/09/04 02:53:18;;;;;;;4.40;2.87;;;16.80;97.30;;;;;;5010166;28;20412;-85
2022/09/04 02:56:07;;;;;;;3.20;2.47;;;16.80;97.30;;;;;;5003782;28;20723;-86
2022/09/04 02:59:11;;;;;;;2.57;2.20;;;16.80;97.30;;;;;;4990977;28;20955;-85
2022/09/04 03:02:00;;;;;;;1.60;1.50;;;16.70;97.30;;;;;;4999619;28;20542;-86
2022/09/04 03:04:48;;;;;;;3.60;2.40;;;16.80;97.30;;;;;;4994205;28;20444;-85
2022/09/04 03:07:38;;;;;;;2.40;2.23;;;16.80;97.30;;;;;;4994071;28;20427;-86
2022/09/04 03:10:11;;;;;;;4.77;2.87;;;16.70;97.30;;;;;;4993598;28;20455;-84
2022/09/04 03:12:55;;;;;;;3.40;2.53;;;16.70;97.30;;;;;;5008830;28;20448;-85
2022/09/04 03:15:37;;;;;;;2.70;2.03;;;16.70;97.30;;;;;;5008472;28;20457;-86
2022/09/04 03:18:22;;;;;;;2.43;2.30;;;16.70;97.30;;;;;;5000639;28;20877;-85
2022/09/04 03:21:08;;;;;;;3.20;3.00;;;16.60;97.30;;;;;;5009541;28;20420;-87
2022/09/04 03:23:54;;;;;;;2.67;2.47;;;16.60;97.30;;;;;;4991552;28;20427;-86
2022/09/04 03:26:25;;;;;;;2.47;2.27;;;16.60;97.30;;;;;;5002068;28;20447;-87
2022/09/04 03:29:01;;;;;;;4.10;2.13;;;16.60;97.30;;;;;;5011128;28;20744;-86
2022/09/04 03:31:50;;;;;;;3.00;2.60;;;16.60;97.30;;;;;;5008798;28;20938;-88
2022/09/04 03:34:29;;;;;;;3.60;3.00;;;16.60;97.30;;;;;;4993361;28;20567;-85
2022/09/04 03:40:05;;;;;;;3.50;2.27;;;16.60;97.30;;;;;;5005070;28;20843;-89
2022/09/04 03:43:00;;;;;;;2.33;2.20;;;16.60;97.30;;;;;;5007318;28;20417;-89
2022/09/04 03:46:04;;;;;;;5.17;3.10;;;16.60;97.30;;;;;;4998327;28;20704;-89
2022/09/04 03:48:41;;;;;;;2.73;2.53;;;16.60;97.30;;;;;;4998265;28;20436;-90
2022/09/04 03:51:25;;;;;;;2.90;2.17;;;16.60;97.30;;;;;;4993157;28;20567;-88
2022/09/04 03:54:11;;;;;;;2.27;2.10;;;16.50;97.30;;;;;;4982631;28;20422;-87
2022/09/04 03:56:49;;;;;;;3.83;2.80;;;16.50;97.30;;;;;;4985353;28;20414;-90
2022/09/04 03:59:41;;;;;;;2.97;2.77;;;16.50;97.30;;;;;;4991628;28;20428;-89
2022/09/04 04:02:37;;;;;;;3.63;2.43;;;16.50;97.30;;;;;;4972169;28;20952;-88
2022/09/04 04:05:23;;;;;;;3.40;3.10;;;16.50;97.30;;;;;;4962107;28;20449;-89
2022/09/04 04:07:52;;;;;;;8.00;2.13;;;16.40;97.30;;;;;;4979130;28;20467;-88
2022/09/04 04:10:34;;;;;;;4.10;1.77;;;16.40;97.30;;;;;;4979476;28;20637;-89
2022/09/04 04:13:33;;;;;;;2.87;2.30;;;16.30;97.30;;;;;;4963979;28;20418;-89
2022/09/04 04:16:30;;;;;;;4.13;2.93;;;16.30;97.30;;;;;;4970923;28;20424;-88
2022/09/04 04:19:14;;;;;;;3.20;2.77;;;16.20;97.30;;;;;;4981100;28;20993;-89
2022/09/04 04:22:02;;;;;;;3.10;2.50;;;16.20;97.30;;;;;;4979291;28;20424;-89
2022/09/04 04:24:41;;;;;;;10.07;3.30;;;16.20;97.30;;;;;;4993639;28;20421;-89
2022/09/04 04:27:45;;;;;;;5.93;3.27;;;16.20;97.30;;;;;;4991122;28;20466;-87
2022/09/04 04:30:14;;;;;;;6.80;2.80;;;16.10;97.30;;;;;;4994997;28;20792;-88
2022/09/04 04:32:58;;;;;;;5.37;3.17;;;16.10;97.30;;;;;;4983469;28;20512;-90
2022/09/04 04:35:34;;;;;;;4.23;2.93;;;16.10;97.30;;;;;;4970672;28;20416;-89
2022/09/04 04:38:25;;;;;;;5.17;2.50;;;16.00;97.30;;;;;;4975248;28;20461;-88
2022/09/04 04:41:04;;;;;;;3.40;2.67;;;16.00;97.30;;;;;;5012103;28;20842;-89
2022/09/04 04:43:48;;;;;;;3.03;2.50;;;16.00;97.30;;;;;;4971826;28;20428;-88
2022/09/04 04:46:35;;;;;;;2.80;2.57;;;16.00;97.30;;;;;;4962813;28;20426;-91
2022/09/04 04:49:42;;;;;;;3.73;2.30;;;16.00;97.30;;;;;;4979631;28;20812;-89
2022/09/04 04:52:26;;;;;;;2.57;2.37;;;16.00;97.30;;;;;;4977603;28;20692;-90
2022/09/04 04:55:29;;;;;;;3.57;2.30;;;16.00;97.30;;;;;;5003440;28;20502;-89
2022/09/04 04:58:22;;;;;;;4.20;2.23;;;16.00;97.30;;;;;;4982799;28;20555;-89
2022/09/04 05:01:05;;;;;;;1.70;1.57;;;16.00;97.30;;;;;;4976370;28;20432;-92
2022/09/04 05:03:48;;;;;;;2.17;2.03;;;16.00;97.30;;;;;;4979377;28;20487;-89
2022/09/04 05:06:19;;;;;;;2.70;2.03;;;16.00;97.30;;;;;;4995847;28;20427;-89
2022/09/04 05:09:10;;;;;;;2.20;1.80;;;16.00;97.30;;;;;;4997309;28;20451;-90
2022/09/04 05:11:57;;;;;;;5.80;3.93;;;16.00;97.30;;;;;;4977753;28;20421;-91
2022/09/04 05:14:31;;;;;;;3.77;2.77;;;16.00;97.30;;;;;;5009830;28;20424;-91
2022/09/04 05:17:03;;;;;;;3.40;2.33;;;16.00;97.30;;;;;;4998604;28;20490;-91
2022/09/04 05:19:34;;;;;;;10.20;3.10;;;16.00;97.30;;;;;;4999966;28;20475;-89
2022/09/04 05:22:28;;;;;;;2.17;2.03;;;16.00;97.30;;;;;;4985370;28;20420;-91
2022/09/04 05:25:12;;;;;;;2.33;2.07;;;16.10;97.30;;;;;;4975481;28;20505;-91
2022/09/04 05:27:41;;;;;;;2.97;2.63;;;16.10;97.30;;;;;;4977859;28;20596;-91
2022/09/04 05:30:33;;;;;;;3.40;2.80;;;16.10;97.30;;;;;;4974791;28;20457;-90
2022/09/04 05:33:11;;;;;;;2.37;2.20;;;16.10;97.30;;;;;;4977904;28;20789;-92
2022/09/04 05:35:41;;;;;;;3.27;2.67;;;16.10;97.30;;;;;;5009693;28;20958;-91
2022/09/04 05:38:16;;;;;;;4.50;3.13;;;16.10;97.30;;;;;;4989010;28;20485;-92
2022/09/04 05:41:16;;;;;;;3.50;2.20;;;16.10;97.30;;;;;;4975032;28;20418;-91
2022/09/04 05:44:01;;;;;;;10.03;2.50;;;16.10;97.30;;;;;;4977880;28;20932;-92
2022/09/04 05:46:40;;;;;;;2.93;2.43;;;16.20;97.30;;;;;;4973494;28;20418;-92
2022/09/04 05:49:38;;;;;;;2.47;2.27;;;16.10;97.30;;;;;;4979994;28;20454;-93
2022/09/04 05:52:41;;;;;;;6.73;3.27;;;16.20;97.30;;;;;;4970832;28;20479;-92
2022/09/04 05:55:33;;;;;;;2.37;2.17;;;16.20;97.30;;;;;;4971467;28;20425;-92
2022/09/04 05:58:27;;;;;;;4.10;2.17;;;16.20;97.30;;;;;;4952044;28;20441;-92
2022/09/04 06:01:12;;;;;;;4.40;2.57;;;16.20;97.30;;;;;;4956702;28;20435;-92
2022/09/04 06:03:37;;;;;;;4.73;2.50;;;16.20;97.30;;;;;;4956448;28;20512;-92
2022/09/04 06:06:06;;;;;;;3.63;3.27;;;16.20;97.30;;;;;;4959207;28;20461;-91
2022/09/04 06:08:34;;;;;;;3.17;2.83;;;16.20;97.30;;;;;;4951202;28;20222;-92
2022/09/04 06:11:49;;;;;;;3.40;3.20;;;16.30;97.30;;;;;;4961723;28;20458;-91
2022/09/04 06:14:33;;;;;;;5.53;2.63;;;16.30;97.30;;;;;;4975831;28;20450;-92
2022/09/04 06:17:33;;;;;;;3.10;2.90;;;16.30;97.30;;;;;;4962230;28;20429;-91
2022/09/04 06:20:23;;;;;;;2.70;2.50;;;16.40;97.30;;;;;;4972677;28;21023;-95
2022/09/04 06:23:16;;;;;;;4.17;2.70;;;16.40;97.30;;;;;;4958533;28;20936;-91
2022/09/04 06:25:48;;;;;;;3.53;2.43;;;16.40;97.30;;;;;;4956442;28;20916;-94
2022/09/04 06:28:52;;;;;;;4.70;3.33;;;16.40;97.30;;;;;;4958868;28;20798;-94
2022/09/04 06:31:17;;;;;;;2.50;2.30;;;16.40;97.30;;;;;;4902063;29;20559;-92
2022/09/04 06:34:20;;;;;;;5.07;2.90;;;16.50;97.30;;;;;;4960219;28;20430;-91
2022/09/04 06:36:46;;;;;;;3.60;2.73;;;16.50;97.30;;;;;;4989443;28;20233;-92
2022/09/04 06:39:33;;;;;;;3.17;2.97;;;16.50;97.30;;;;;;4977971;28;20879;-92
2022/09/04 06:42:14;;;;;;;3.57;2.67;;;16.50;97.30;;;;;;4978566;28;20196;-94
2022/09/04 06:44:57;;;;;;;6.50;3.10;;;16.60;97.30;;;;;;4982131;28;20582;-92
2022/09/04 06:47:26;;;;;;;2.47;2.33;;;16.60;97.30;;;;;;4978381;28;20464;-91
2022/09/04 06:50:18;;;;;;;9.33;2.13;;;16.70;97.30;;;;;;4996331;28;20460;-91
2022/09/04 06:53:09;;;;;;;2.43;2.27;;;16.70;97.30;;;;;;4979750;28;20497;-93
2022/09/04 06:56:05;;;;;;;4.60;2.77;;;16.80;97.30;;;;;;4982291;28;20483;-93
2022/09/04 06:59:16;;;;;;;3.83;2.80;;;16.90;97.30;;;;;;4978933;28;20444;-91
2022/09/04 07:02:03;;;;;;;3.33;2.53;;;16.90;97.30;;;;;;4995017;28;20428;-92
2022/09/04 07:05:12;;;;;;;2.70;2.43;;;17.00;97.30;;;;;;4983653;28;20429;-92
2022/09/04 07:08:02;;;;;;;2.50;2.13;;;17.00;97.30;;;;;;4974226;28;20449;-92
2022/09/04 07:11:02;;;;;;;4.93;2.50;;;17.10;97.30;;;;;;5012253;28;20467;-91
2022/09/04 07:13:53;;;;;;;5.83;3.03;;;17.10;97.30;;;;;;4994605;28;20451;-92
2022/09/04 07:16:33;;;;;;;2.87;2.27;;;17.20;97.30;;;;;;4985360;28;20412;-92
2022/09/04 07:19:45;;;;;;;6.63;1.73;;;17.30;97.30;;;;;;4993529;28;20519;-92
2022/09/04 07:22:36;;;;;;;2.70;2.50;;;17.30;97.30;;;;;;4958971;28;20472;-92
2022/09/04 07:25:11;;;;;;;7.83;3.77;;;17.40;97.30;;;;;;4993478;28;20421;-95
2022/09/04 07:28:05;;;;;;;1.97;1.90;;;17.50;97.30;;;;;;5016191;28;20463;-93
2022/09/04 07:30:44;;;;;;;3.17;2.33;;;17.60;97.30;;;;;;5015619;28;20453;-93
2022/09/04 07:33:51;;;;;;;19.13;2.67;;;17.70;97.30;;;;;;5008967;28;20417;-92
2022/09/04 07:36:28;;;;;;;3.10;2.50;;;17.70;97.30;;;;;;4956205;28;20908;-92
2022/09/04 07:39:09;;;;;;;4.77;2.47;;;17.80;97.30;;;;;;4976543;28;20456;-94
2022/09/04 07:41:44;;;;;;;6.10;2.30;;;17.90;97.30;;;;;;4993750;28;20419;-92
2022/09/04 07:44:34;;;;;;;3.13;2.00;;;18.00;97.30;;;;;;4990354;28;20438;-92
2022/09/04 07:47:30;;;;;;;4.03;2.80;;;18.10;97.30;;;;;;4986826;28;20413;-93
2022/09/04 07:50:19;;;;;;;4.80;2.70;;;18.20;97.30;;;;;;4980712;28;20976;-92
2022/09/04 07:53:13;;;;;;;4.33;3.53;;;18.20;97.30;;;;;;4991091;28;20492;-91
2022/09/04 07:55:47;;;;;;;1.90;1.80;;;18.30;97.30;;;;;;4999049;28;20431;-90
2022/09/04 07:58:49;;;;;;;2.00;1.90;;;18.40;97.30;;;;;;4985736;28;20428;-93
2022/09/04 08:01:32;;;;;;;7.23;3.20;;;18.40;97.30;;;;;;4981878;28;20412;-91
2022/09/04 08:04:25;;;;;;;3.77;2.27;;;18.50;97.30;;;;;;4994401;28;20408;-93
2022/09/04 08:07:05;;;;;;;2.03;1.90;;;18.50;97.30;;;;;;4981970;28;20425;-91
2022/09/04 08:10:09;;;;;;;5.17;3.03;;;18.60;97.30;;;;;;5002681;28;20459;-92
2022/09/04 08:13:08;;;;;;;3.40;3.20;;;18.60;97.30;;;;;;4980074;28;20481;-92
2022/09/04 08:15:42;;;;;;;9.90;4.13;;;18.70;97.30;;;;;;4999074;28;20412;-91
2022/09/04 08:18:10;;;;;;;5.30;2.50;;;18.80;97.30;;;;;;4999794;28;20532;-91
2022/09/04 08:20:48;;;;;;;5.40;3.30;;;18.80;97.30;;;;;;4998692;28;20431;-92
2022/09/04 08:23:41;;;;;;;3.60;2.50;;;18.90;97.30;;;;;;4982423;28;20447;-90
2022/09/04 08:26:15;;;;;;;3.60;3.40;;;18.90;97.30;;;;;;4998284;28;20409;-91
2022/09/04 08:29:07;;;;;;;2.50;2.30;;;19.00;97.30;;;;;;4993206;28;20812;-91
2022/09/04 08:31:46;;;;;;;4.63;2.70;;;19.00;97.30;;;;;;4995216;28;20919;-91
2022/09/04 08:34:32;;;;;;;2.90;2.17;;;19.10;97.30;;;;;;4999018;28;20415;-92
2022/09/04 08:37:26;;;;;;;4.03;3.20;;;19.10;97.30;;;;;;4970812;28;20428;-92
2022/09/04 08:40:12;;;;;;;3.33;2.87;;;19.20;97.30;;;;;;5014474;28;20441;-93
2022/09/04 08:43:04;;;;;;;8.27;3.47;;;19.30;97.30;;;;;;4998576;28;20443;-91
2022/09/04 08:46:05;;;;;;;2.27;1.87;;;19.30;97.30;;;;;;4982109;28;20420;-92
2022/09/04 08:49:00;;;;;;;4.17;2.70;;;19.40;97.30;;;;;;4935976;28;20454;-92
2022/09/04 08:51:55;;;;;;;3.40;2.80;;;19.40;97.30;;;;;;4991495;28;20512;-92
2022/09/04 08:54:56;;;;;;;4.17;2.10;;;19.50;97.30;;;;;;5014801;28;20440;-89
2022/09/04 08:57:57;;;;;;;2.53;2.40;;;19.60;97.10;;;;;;4998639;28;20437;-90
2022/09/04 09:00:57;;;;;;;4.37;2.73;;;19.60;97.00;;;;;;4997962;28;20423;-89
2022/09/04 09:04:08;;;;;;;2.17;2.03;;;19.70;97.20;;;;;;5014216;28;20488;-91
2022/09/04 09:06:58;;;;;;;2.63;2.50;;;19.80;97.30;;;;;;5014841;28;20471;-91
2022/09/04 09:09:27;;;;;;;2.17;2.00;;;19.80;97.20;;;;;;4983446;28;20421;-90
2022/09/04 09:12:06;;;;;;;4.23;2.00;;;19.90;97.20;;;;;;4981807;28;20424;-89
2022/09/04 09:15:05;;;;;;;2.80;2.27;;;20.00;97.00;;;;;;4997072;28;20431;-89
2022/09/04 09:17:58;;;;;;;3.13;2.43;;;20.10;96.90;;;;;;5004967;28;20472;-89
2022/09/04 09:20:47;;;;;;;5.30;2.33;;;20.10;96.30;;;;;;4998248;28;20419;-89
2022/09/04 09:23:58;;;;;;;3.10;2.17;;;20.20;96.10;;;;;;4981797;28;20500;-88
2022/09/04 09:26:27;;;;;;;2.40;1.93;;;20.20;96.50;;;;;;4963612;28;20409;-89
2022/09/04 09:29:18;;;;;;;3.87;2.37;;;20.30;96.60;;;;;;4971111;28;20449;-89
2022/09/04 09:32:05;;;;;;;5.00;2.70;;;20.40;96.70;;;;;;4995478;28;20488;-90
2022/09/04 09:34:56;;;;;;;3.30;1.63;;;20.50;96.50;;;;;;4981402;28;20425;-90
2022/09/04 09:37:52;;;;;;;3.80;2.13;;;20.60;96.40;;;;;;4980827;28;20527;-89
2022/09/04 09:40:42;;;;;;;2.10;2.00;;;20.70;96.40;;;;;;4989773;28;20409;-89
2022/09/04 09:46:14;;;;;;;2.87;2.10;;;20.80;96.40;;;;;;4993210;28;20484;-86
2022/09/04 09:48:57;;;;;;;2.50;1.73;;;20.90;96.30;;;;;;4987598;28;20440;-86
2022/09/04 09:51:58;;;;;;;2.57;2.00;;;20.90;96.30;;;;;;4993377;28;20471;-86
2022/09/04 09:54:46;;;;;;;3.50;2.43;;;21.00;96.20;;;;;;4973864;28;20964;-86
2022/09/04 09:57:49;;;;;;;1.87;1.77;;;21.10;96.20;;;;;;4956706;28;20423;-86
2022/09/04 10:00:24;;;;;;;1.90;1.90;;;21.20;95.70;;;;;;4973666;28;20944;-86
2022/09/04 10:03:31;;;;;;;2.43;2.10;;;21.20;94.10;;;;;;4956701;28;20445;-86
2022/09/04 10:06:25;;;;;;;2.43;2.10;;;21.20;94.70;;;;;;4957786;28;20429;-86
2022/09/04 10:09:24;;;;;;;1.90;1.63;;;21.30;94.40;;;;;;4957289;28;20457;-86
2022/09/04 10:12:22;;;;;;;2.40;1.80;;;21.50;94.50;;;;;;4970116;28;20438;-86
2022/09/04 10:15:08;;;;;;;2.00;1.70;;;21.60;94.30;;;;;;4971404;28;20445;-86
2022/09/04 10:17:53;;;;;;;3.20;2.17;;;21.70;93.80;;;;;;4967290;28;20434;-86
2022/09/04 10:20:37;;;;;;;2.50;2.33;;;21.90;93.20;;;;;;4958144;28;20422;-87
2022/09/04 10:23:40;;;;;;;2.43;2.00;;;22.00;93.00;;;;;;4959171;28;20514;-86
2022/09/04 10:26:15;;;;;;;4.37;2.30;;;22.20;92.80;;;;;;4955591;28;20417;-86
2022/09/04 10:29:09;;;;;;;3.20;2.03;;;22.20;90.30;;;;;;4971525;28;20421;-86
2022/09/04 10:32:13;;;;;;;2.67;2.23;;;22.30;89.90;;;;;;4952973;28;20862;-85
2022/09/04 10:34:54;;;;;;;3.77;3.20;;;22.30;89.80;;;;;;4972937;28;20425;-86
2022/09/04 10:37:28;;;;;;;2.23;2.03;;;22.40;89.90;;;;;;4954228;28;20410;-88
2022/09/04 10:43:24;;;;;;;2.27;2.07;;;22.60;90.50;;;;;;4973289;28;20425;-86
2022/09/04 10:46:09;;;;;;;3.13;2.20;;;22.80;90.10;;;;;;4970957;28;20441;-85
2022/09/04 10:49:00;;;;;;;1.67;1.57;;;23.00;88.60;;;;;;4955540;28;20888;-85
2022/09/04 10:51:48;;;;;;;3.60;1.93;;;23.00;88.10;;;;;;4955792;28;20466;-86
2022/09/04 10:54:37;;;;;;;3.23;2.27;;;23.10;88.70;;;;;;4954957;28;20426;-86
2022/09/04 10:57:27;;;;;;;2.70;2.50;;;23.20;88.20;;;;;;4954145;28;20882;-86
2022/09/04 11:00:24;;;;;;;4.53;2.10;;;23.40;88.20;;;;;;4957431;28;20427;-86
2022/09/04 11:02:57;;;;;;;1.93;1.83;;;23.40;87.30;;;;;;4972026;28;20524;-86
2022/09/04 11:05:44;;;;;;;6.13;3.20;;;23.40;87.10;;;;;;4957695;28;20430;-86
2022/09/04 11:08:34;;;;;;;4.37;2.23;;;23.30;87.70;;;;;;4957347;28;20521;-86
2022/09/04 11:11:25;;;;;;;3.87;2.57;;;23.40;87.00;;;;;;4972360;28;20522;-87
2022/09/04 11:14:15;;;;;;;1.93;1.40;;;23.50;88.00;;;;;;4950332;29;20953;-86
2022/09/04 11:17:12;;;;;;;1.73;1.70;;;23.60;87.50;;;;;;4970827;28;20781;-86
2022/09/04 11:20:04;;;;;;;3.47;2.53;;;23.80;86.80;;;;;;4954817;28;20426;-86
2022/09/04 11:22:51;;;;;;;4.00;3.17;;;23.90;87.00;;;;;;4967189;28;20442;-86
2022/09/04 11:25:37;;;;;;;2.53;1.97;;;24.00;86.60;;;;;;4972554;28;20426;-86
2022/09/04 11:28:54;;;;;;;4.00;2.60;;;24.00;85.80;;;;;;4972281;28;20427;-88
2022/09/04 11:31:49;;;;;;;2.00;1.70;;;24.10;85.80;;;;;;4894201;29;20983;-86
2022/09/04 11:34:43;;;;;;;3.23;2.40;;;24.20;85.00;;;;;;4955985;28;20421;-86
2022/09/04 11:37:21;;;;;;;1.97;1.90;;;24.20;85.30;;;;;;4954837;28;20437;-87
2022/09/04 11:39:52;;;;;;;5.03;2.83;;;24.40;85.90;;;;;;4972497;28;20476;-85
2022/09/04 11:42:43;;;;;;;4.47;1.80;;;24.50;85.20;;;;;;4976736;28;20991;-84
2022/09/04 11:45:47;;;;;;;2.13;1.97;;;24.60;85.10;;;;;;4959432;28;20469;-85
2022/09/04 11:48:36;;;;;;;2.40;2.03;;;24.70;84.00;;;;;;4950001;28;20864;-87
2022/09/04 11:51:17;;;;;;;7.60;2.33;;;24.80;84.10;;;;;;4962178;28;20933;-86
2022/09/04 11:53:59;;;;;;;2.90;1.73;;;24.90;83.40;;;;;;4956988;28;20588;-87
2022/09/04 11:56:42;;;;;;;3.17;2.37;;;25.00;83.80;;;;;;4972918;28;20417;-87
2022/09/04 11:59:55;;;;;;;2.40;1.67;;;25.10;83.60;;;;;;4972698;28;20406;-86
2022/09/04 12:03:01;;;;;;;2.00;1.90;;;25.30;83.90;;;;;;4946531;28;20453;-86
2022/09/04 12:06:01;;;;;;;2.40;2.20;;;25.50;81.60;;;;;;4954656;28;20422;-86
2022/09/04 12:09:07;;;;;;;3.40;3.27;;;25.50;81.20;;;;;;4959098;28;20433;-86
2022/09/04 12:12:06;;;;;;;4.33;2.10;;;25.50;81.70;;;;;;4963195;28;20544;-87
2022/09/04 12:14:51;;;;;;;2.50;2.30;;;25.60;81.80;;;;;;4975599;28;20422;-86
2022/09/04 12:17:46;;;;;;;2.53;1.97;;;25.70;82.40;;;;;;4971838;28;20508;-83
2022/09/04 12:20:27;;;;;;;6.60;2.83;;;25.80;81.50;;;;;;4971779;28;20461;-83
2022/09/04 12:23:16;;;;;;;3.50;1.80;;;25.90;81.50;;;;;;4971008;28;20433;-86
2022/09/04 12:26:06;;;;;;;2.33;1.70;;;26.00;81.10;;;;;;4963135;28;20468;-86
2022/09/04 12:29:09;;;;;;;3.23;1.40;;;26.10;81.10;;;;;;4975221;28;20428;-86
2022/09/04 12:31:56;;;;;;;1.73;1.57;;;26.30;81.20;;;;;;4976414;28;20453;-85
2022/09/04 12:34:39;;;;;;;1.70;1.70;;;26.40;80.40;;;;;;4959471;28;20429;-86
2022/09/04 12:37:42;;;;;;;3.93;1.87;;;26.50;79.90;;;;;;4964439;28;20432;-87
2022/09/04 12:40:43;;;;;;;4.20;1.77;;;26.50;79.40;;;;;;4964286;28;20489;-86
2022/09/04 12:43:15;;;;;;;1.87;1.80;;;26.50;79.80;;;;;;4952494;28;20455;-85
2022/09/04 12:46:20;;;;;;;2.13;1.97;;;26.60;80.30;;;;;;4959632;28;21047;-86
2022/09/04 12:49:00;;;;;;;1.60;1.50;;;26.80;79.30;;;;;;4957143;28;20422;-86
2022/09/04 12:51:35;;;;;;;2.00;1.90;;;26.80;77.80;;;;;;4973651;28;20461;-86
2022/09/04 12:54:13;;;;;;;2.33;2.13;;;26.80;79.40;;;;;;4969961;28;20552;-86
2022/09/04 12:57:07;;;;;;;1.93;1.60;;;26.80;79.60;;;;;;4968602;28;20923;-86
2022/09/04 13:00:12;;;;;;;3.03;2.10;;;26.90;78.90;;;;;;4965105;28;20426;-87
2022/09/04 13:02:43;;;;;;;1.40;1.30;;;27.10;77.60;;;;;;4955390;29;20442;-89
2022/09/04 13:05:30;;;;;;;3.33;1.93;;;27.10;78.40;;;;;;4979215;28;20457;-86
2022/09/04 13:08:02;;;;;;;2.07;1.93;;;27.20;78.60;;;;;;4972802;28;20426;-85
2022/09/04 13:10:55;;;;;;;2.43;2.20;;;27.30;77.50;;;;;;4971138;28;20462;-86
2022/09/04 13:13:42;;;;;;;1.27;1.27;;;27.40;77.80;;;;;;4964012;28;20453;-86
2022/09/04 13:16:44;;;;;;;2.10;1.80;;;27.50;77.90;;;;;;4959123;28;20849;-86
2022/09/04 13:19:37;;;;;;;2.37;1.70;;;27.60;78.00;;;;;;4970576;28;20521;-86
2022/09/04 13:22:32;;;;;;;2.20;1.90;;;27.60;77.50;;;;;;4959718;28;20975;-85
2022/09/04 13:25:24;;;;;;;3.40;1.57;;;27.70;77.20;;;;;;4972519;28;20873;-86
2022/09/04 13:28:11;;;;;;;2.73;1.60;;;27.70;76.50;;;;;;4955537;28;20430;-85
2022/09/04 13:31:04;;;;;;;3.10;1.73;;;27.80;77.20;;;;;;4964535;28;20449;-86
2022/09/04 13:33:53;;;;;;;2.87;1.80;;;27.80;76.40;;;;;;4973359;28;20497;-87
2022/09/04 13:36:37;;;;;;;2.17;1.83;;;28.00;75.60;;;;;;4959109;28;20489;-87
2022/09/04 13:39:23;;;;;;;2.33;2.20;;;27.90;75.00;;;;;;4969728;28;20425;-86
2022/09/04 13:42:13;;;;;;;2.63;1.70;;;27.90;76.30;;;;;;4952312;28;20425;-86
2022/09/04 13:45:24;;;;;;;1.53;1.10;;;28.00;75.70;;;;;;4950778;28;20536;-87
2022/09/04 13:48:08;;;;;;;2.40;1.97;;;28.00;76.40;;;;;;4926690;29;20430;-86
2022/09/04 13:50:44;;;;;;;1.80;1.60;;;28.10;76.80;;;;;;4970444;28;21067;-86
2022/09/04 13:53:29;;;;;;;1.90;1.53;;;28.20;76.40;;;;;;4965657;28;20442;-85
2022/09/04 13:56:14;;;;;;;5.73;1.77;;;28.30;77.20;;;;;;4957146;28;20936;-86
2022/09/04 13:58:50;;;;;;;1.63;1.40;;;28.40;75.80;;;;;;4957720;28;20457;-86
2022/09/04 14:01:24;;;;;;;2.50;2.17;;;28.50;74.60;;;;;;4970785;28;20855;-85
2022/09/04 14:03:56;;;;;;;2.60;2.40;;;28.50;74.40;;;;;;4955946;28;20474;-85
2022/09/04 14:06:25;;;;;;;2.20;1.43;;;28.50;74.40;;;;;;4974007;28;20477;-85
2022/09/04 14:08:54;;;;;;;1.43;1.40;;;28.50;75.00;;;;;;4957934;28;20714;-85
2022/09/04 14:11:39;;;;;;;1.43;1.33;;;28.50;74.00;;;;;;4954355;28;20466;-86
2022/09/04 14:14:29;;;;;;;2.10;1.67;;;28.40;74.70;;;;;;4955662;28;20425;-85
2022/09/04 14:16:58;;;;;;;2.40;2.03;;;28.50;74.40;;;;;;4954233;28;20525;-85
2022/09/04 14:19:53;;;;;;;4.50;2.60;;;28.50;73.80;;;;;;4948843;28;20425;-85
2022/09/04 14:22:47;;;;;;;2.00;1.90;;;28.60;74.80;;;;;;4961347;28;20972;-87
2022/09/04 14:25:24;;;;;;;2.60;1.80;;;28.60;73.80;;;;;;4958406;28;20955;-87
2022/09/04 14:28:10;;;;;;;1.50;1.40;;;28.70;73.80;;;;;;4967646;28;20904;-84
2022/09/04 14:30:45;;;;;;;1.40;1.27;;;28.70;73.80;;;;;;4973332;28;20441;-86
2022/09/04 14:33:50;;;;;;;2.17;1.47;;;28.60;73.70;;;;;;4971584;28;20454;-86
2022/09/04 14:36:34;;;;;;;4.20;1.80;;;28.50;73.30;;;;;;4951191;28;20422;-85
2022/09/04 14:39:29;;;;;;;2.23;2.03;;;28.30;73.30;;;;;;4959881;28;20605;-86